Normandale, Illinois
Current Conditions -  °F | °C
As of 10:13 AM on Sunday 23 Nov 2014 (Local Time) from KPIA Reporting Station
Broken Clouds Broken Clouds  
Wind Chill: 54°   Ceiling: 1400
Heat Index: 54°   Visibility: 10mi
Dew Point: 47°   Wind: 14mph
Humidity: 77%   Direction: 170°S
Pressure: 29.64"   Gusts: NA
Location:  40.5452°N, 89.6011°W
Report Text: KPIA 231613Z 17012KT 10SM BKN014 12/08 A2964 RMK AO2 T01220083
Loading
Personal Weather Stations






























Interactive Weather Map New forecast layout! Learn more

10-Day Weather Forecast

Advertisements
Track Severe Weather on mobile